createdAt,value
2017-07-29T00:00:04.486Z,93.39
2017-07-29T00:00:45.378Z,93.39
2017-07-29T00:01:26.278Z,93.87
2017-07-29T00:02:07.161Z,93.87
2017-07-29T00:02:48.052Z,93.97
2017-07-29T00:03:28.937Z,93.59
2017-07-29T00:04:09.824Z,93.59
2017-07-29T00:04:50.712Z,94.07
2017-07-29T00:05:31.599Z,93.68
2017-07-29T00:06:12.489Z,93.3
2017-07-29T00:06:53.369Z,93.3
2017-07-29T00:07:34.260Z,93.39
2017-07-29T00:08:15.143Z,93.2
2017-07-29T00:08:56.036Z,93.59
2017-07-29T00:09:36.961Z,93.59
2017-07-29T00:10:17.814Z,93.87
2017-07-29T00:10:58.714Z,93.87
2017-07-29T00:11:39.602Z,93.97
2017-07-29T00:12:20.500Z,93.87
2017-07-29T00:13:01.397Z,93.68
2017-07-29T00:13:42.292Z,93.77
2017-07-29T00:14:23.170Z,94.16
2017-07-29T00:15:04.062Z,93.87
2017-07-29T00:15:44.952Z,93.87
2017-07-29T00:16:25.835Z,93.59
2017-07-29T00:17:06.713Z,93.68
2017-07-29T00:17:47.613Z,93.87
2017-07-29T00:18:28.507Z,94.16
2017-07-29T00:19:09.395Z,93.97
2017-07-29T00:19:50.274Z,93.92
2017-07-29T00:20:31.155Z,93.82
2017-07-29T00:21:12.045Z,93.73
2017-07-29T00:21:52.927Z,94.69
2017-07-29T00:22:33.815Z,94.59
2017-07-29T00:23:14.725Z,94.59
2017-07-29T00:23:55.611Z,94.45
2017-07-29T00:24:36.510Z,94.59
2017-07-29T00:25:17.393Z,94.79
2017-07-29T00:25:58.274Z,94.79
2017-07-29T00:26:39.167Z,94.69
2017-07-29T00:27:20.049Z,94.59
2017-07-29T00:28:00.927Z,94.49
2017-07-29T00:28:41.808Z,94.79
2017-07-29T00:29:22.690Z,94.59
2017-07-29T00:30:03.583Z,94.79
2017-07-29T00:30:44.471Z,94.64
2017-07-29T00:31:25.356Z,94.69
2017-07-29T00:32:06.233Z,94.59
2017-07-29T00:32:47.127Z,94.59
2017-07-29T00:33:28.017Z,94.21
2017-07-29T00:34:08.902Z,94.79
2017-07-29T00:34:49.804Z,94.49
2017-07-29T00:35:30.690Z,94.54
2017-07-29T00:36:11.576Z,94.4
2017-07-29T00:36:52.467Z,94.31
2017-07-29T00:37:33.362Z,94.74
2017-07-29T00:38:14.251Z,94.64
2017-07-29T00:38:55.139Z,94.07
2017-07-29T00:39:36.029Z,94.83
2017-07-29T00:40:16.924Z,94.83
2017-07-29T00:40:57.825Z,94.69
2017-07-29T00:41:38.705Z,94.59
2017-07-29T00:42:19.583Z,94.79
2017-07-29T00:43:00.489Z,94.59
2017-07-29T00:43:41.379Z,94.49
2017-07-29T00:44:22.258Z,94.59
2017-07-29T00:45:03.147Z,94.59
2017-07-29T00:45:44.047Z,94.4
2017-07-29T00:46:24.924Z,94.59
2017-07-29T00:47:05.798Z,94.4
2017-07-29T00:47:46.718Z,94.59
2017-07-29T00:48:27.600Z,94.69
2017-07-29T00:49:08.471Z,94.69
2017-07-29T00:49:49.357Z,94.98
2017-07-29T00:50:30.243Z,94.79
2017-07-29T00:51:11.140Z,94.49
2017-07-29T00:51:52.025Z,94.4
2017-07-29T00:52:32.913Z,94.79
2017-07-29T00:53:13.797Z,94.49
2017-07-29T00:53:54.682Z,94.49
2017-07-29T00:54:35.574Z,94.79
2017-07-29T00:55:16.469Z,94.79
2017-07-29T00:55:57.357Z,94.21
2017-07-29T00:56:38.259Z,94.59
2017-07-29T00:57:19.150Z,94.69
2017-07-29T00:58:00.028Z,94.4
2017-07-29T00:58:40.913Z,95.07
2017-07-29T00:59:22.690Z,95.07
2017-07-29T01:00:03.578Z,95.17
2017-07-29T01:00:44.474Z,94.79
2017-07-29T01:01:25.366Z,94.49
2017-07-29T01:02:06.256Z,94.69
2017-07-29T01:02:47.147Z,94.69
2017-07-29T01:03:28.018Z,94.59
2017-07-29T01:04:08.898Z,94.59
2017-07-29T01:04:49.787Z,94.4
2017-07-29T01:05:30.672Z,94.4
2017-07-29T01:06:11.576Z,94.69
2017-07-29T01:06:52.463Z,94.59
2017-07-29T01:07:33.361Z,94.69
2017-07-29T01:08:14.228Z,95.26
2017-07-29T01:08:55.113Z,94.98
2017-07-29T01:09:36.005Z,95.07
2017-07-29T01:10:16.896Z,95.07
2017-07-29T01:10:57.786Z,94.88
2017-07-29T01:11:38.688Z,94.98
2017-07-29T01:12:19.563Z,94.98
2017-07-29T01:13:00.460Z,95.17
2017-07-29T01:13:41.352Z,95.17
2017-07-29T01:14:22.251Z,94.59
2017-07-29T01:15:03.142Z,94.88
2017-07-29T01:15:44.011Z,94.98
2017-07-29T01:16:24.904Z,94.88
2017-07-29T01:17:05.788Z,94.69
2017-07-29T01:17:46.666Z,94.79
2017-07-29T01:18:27.596Z,94.98
2017-07-29T01:19:08.464Z,94.79
2017-07-29T01:19:49.344Z,94.79
2017-07-29T01:20:30.257Z,95.17
2017-07-29T01:21:11.136Z,94.88
2017-07-29T01:21:52.077Z,94.98
2017-07-29T01:22:32.950Z,94.88
2017-07-29T01:23:13.837Z,94.98
2017-07-29T01:23:54.728Z,95.17
2017-07-29T01:24:35.622Z,94.88
2017-07-29T01:25:16.517Z,94.98
2017-07-29T01:25:57.409Z,94.88
2017-07-29T01:26:38.305Z,94.79
2017-07-29T01:27:19.193Z,94.88
2017-07-29T01:28:00.084Z,94.79
2017-07-29T01:28:40.975Z,95.36
2017-07-29T01:29:21.863Z,94.79
2017-07-29T01:30:02.753Z,94.88
2017-07-29T01:30:43.644Z,95.07
2017-07-29T01:31:24.532Z,95.17
2017-07-29T01:32:05.435Z,94.88
2017-07-29T01:32:46.328Z,94.98
2017-07-29T01:33:27.222Z,95.07
2017-07-29T01:34:08.113Z,94.88
2017-07-29T01:34:49.039Z,94.49
2017-07-29T01:35:29.924Z,94.88
2017-07-29T01:36:10.814Z,94.88
2017-07-29T01:36:51.690Z,95.07
2017-07-29T01:37:32.584Z,94.88
2017-07-29T01:38:13.482Z,95.17
2017-07-29T01:38:54.374Z,94.79
2017-07-29T01:39:35.266Z,94.79
2017-07-29T01:40:16.159Z,94.79
2017-07-29T01:40:57.035Z,95.36
2017-07-29T01:41:37.922Z,94.49
2017-07-29T01:42:18.815Z,94.59
2017-07-29T01:42:59.709Z,94.59
2017-07-29T01:43:40.594Z,94.49
2017-07-29T01:44:21.484Z,94.79
2017-07-29T01:45:02.387Z,94.79
2017-07-29T01:45:43.274Z,94.69
2017-07-29T01:46:24.150Z,94.59
2017-07-29T01:47:05.039Z,94.49
2017-07-29T01:47:45.949Z,94.69
2017-07-29T01:48:26.856Z,94.49
2017-07-29T01:49:07.743Z,94.59
2017-07-29T01:49:48.646Z,94.79
2017-07-29T01:50:29.533Z,94.88
2017-07-29T01:51:10.421Z,94.4
2017-07-29T01:51:51.301Z,94.69
2017-07-29T01:52:32.203Z,94.59
2017-07-29T01:53:13.088Z,94.49
2017-07-29T01:53:53.979Z,94.69
2017-07-29T01:54:34.886Z,94.21
2017-07-29T01:55:15.772Z,94.88
2017-07-29T01:55:56.662Z,94.31
2017-07-29T01:56:37.542Z,94.4
2017-07-29T01:57:18.435Z,94.69
2017-07-29T01:57:59.325Z,94.59
2017-07-29T01:58:40.212Z,94.4
2017-07-29T01:59:21.112Z,94.4
2017-07-29T02:00:01.977Z,94.49
2017-07-29T02:00:42.872Z,94.59
2017-07-29T02:01:23.762Z,94.79
2017-07-29T02:02:04.653Z,94.4
2017-07-29T02:02:45.545Z,94.4
2017-07-29T02:03:26.440Z,94.59
2017-07-29T02:04:07.344Z,94.12
2017-07-29T02:04:48.228Z,94.59
2017-07-29T02:05:29.110Z,94.59
2017-07-29T02:06:10.002Z,94.21
2017-07-29T02:06:50.883Z,94.69
2017-07-29T02:07:31.766Z,94.4
2017-07-29T02:08:12.664Z,93.82
2017-07-29T02:08:53.552Z,94.79
2017-07-29T02:09:34.435Z,94.4
2017-07-29T02:10:15.325Z,93.73
2017-07-29T02:10:56.222Z,93.82
2017-07-29T02:11:37.111Z,94.69
2017-07-29T02:12:18.000Z,94.69
2017-07-29T02:12:58.884Z,94.4
2017-07-29T02:13:39.770Z,94.69
2017-07-29T02:14:20.658Z,94.79
2017-07-29T02:15:01.553Z,94.69
2017-07-29T02:15:42.436Z,94.59
2017-07-29T02:16:23.320Z,94.49
2017-07-29T02:17:04.210Z,94.59
2017-07-29T02:17:45.097Z,94.59
2017-07-29T02:18:25.990Z,94.49
2017-07-29T02:19:06.891Z,94.59
2017-07-29T02:19:47.781Z,94.21
2017-07-29T02:20:28.674Z,94.02
2017-07-29T02:21:09.566Z,94.12
2017-07-29T02:21:50.447Z,93.73
2017-07-29T02:22:31.348Z,94.4
2017-07-29T02:23:12.268Z,94.59
2017-07-29T02:23:53.153Z,93.63
2017-07-29T02:24:34.045Z,94.12
2017-07-29T02:25:14.941Z,94.02
2017-07-29T02:25:55.824Z,94.59
2017-07-29T02:26:36.734Z,93.63
2017-07-29T02:27:17.633Z,93.73
2017-07-29T02:27:58.524Z,94.12
2017-07-29T02:28:39.428Z,93.82
2017-07-29T02:29:20.311Z,93.92
2017-07-29T02:30:01.199Z,94.59
2017-07-29T02:30:42.090Z,94.79
2017-07-29T02:31:22.984Z,94.59
2017-07-29T02:32:03.877Z,94.21
2017-07-29T02:32:44.772Z,93.63
2017-07-29T02:33:25.669Z,93.54
2017-07-29T02:34:06.540Z,93.82
2017-07-29T02:34:47.420Z,94.12
2017-07-29T02:35:28.322Z,93.54
2017-07-29T02:36:09.218Z,93.54
2017-07-29T02:36:50.094Z,93.92
2017-07-29T02:37:30.993Z,93.35
2017-07-29T02:38:11.876Z,93.82
2017-07-29T02:38:52.766Z,93.44
2017-07-29T02:39:33.665Z,93.63
2017-07-29T02:40:14.548Z,93.73
2017-07-29T02:40:55.449Z,93.82
2017-07-29T02:41:36.340Z,93.73
2017-07-29T02:42:17.224Z,93.35
2017-07-29T02:42:58.110Z,93.35
2017-07-29T02:43:38.998Z,93.35
2017-07-29T02:44:19.884Z,93.54
2017-07-29T02:45:00.768Z,93.35
2017-07-29T02:45:41.618Z,93.25
2017-07-29T02:46:22.509Z,93.35
2017-07-29T02:47:03.409Z,93.73
2017-07-29T02:47:44.291Z,93.92
2017-07-29T02:48:25.175Z,93.44
2017-07-29T02:49:06.071Z,93.82
2017-07-29T02:49:46.951Z,93.35
2017-07-29T02:50:27.850Z,93.63
2017-07-29T02:51:08.747Z,93.25
2017-07-29T02:51:49.644Z,92.96
2017-07-29T02:52:30.543Z,93.25
2017-07-29T02:53:11.445Z,93.92
2017-07-29T02:53:52.322Z,93.25
2017-07-29T02:54:33.209Z,93.25
2017-07-29T02:55:14.107Z,92.96
2017-07-29T02:55:54.992Z,93.35
2017-07-29T02:56:35.884Z,93.15
2017-07-29T02:57:16.771Z,93.44
2017-07-29T02:57:57.666Z,93.35
2017-07-29T02:58:38.545Z,93.44
2017-07-29T02:59:19.440Z,93.25
2017-07-29T03:00:00.330Z,93.06
2017-07-29T03:00:41.218Z,93.25
2017-07-29T03:01:22.125Z,93.35
2017-07-29T03:02:03.016Z,92.86
2017-07-29T03:02:43.910Z,93.06
2017-07-29T03:03:24.805Z,92.68
2017-07-29T03:04:05.694Z,93.54
2017-07-29T03:04:46.578Z,92.68
2017-07-29T03:05:27.474Z,92.58
2017-07-29T03:06:08.365Z,91.81
2017-07-29T03:06:49.249Z,91.38
2017-07-29T03:07:30.140Z,92.68
2017-07-29T03:08:11.031Z,92.48
2017-07-29T03:08:51.916Z,92.68
2017-07-29T03:09:32.821Z,93.06
2017-07-29T03:10:13.717Z,92.96
2017-07-29T03:10:54.611Z,93.15
2017-07-29T03:11:35.508Z,93.54
2017-07-29T03:12:16.394Z,92.86
2017-07-29T03:12:57.279Z,92.58
2017-07-29T03:13:38.167Z,92.48
2017-07-29T03:14:19.061Z,92.48
2017-07-29T03:14:59.933Z,92.68
2017-07-29T03:15:40.851Z,92.48
2017-07-29T03:16:21.739Z,92.58
2017-07-29T03:17:02.638Z,92.58
2017-07-29T03:17:43.535Z,92.58
2017-07-29T03:18:24.440Z,92.48
2017-07-29T03:19:05.324Z,92.19
2017-07-29T03:19:46.216Z,92.48
2017-07-29T03:20:27.102Z,92.96
2017-07-29T03:21:07.986Z,92.58
2017-07-29T03:21:48.890Z,93.15
2017-07-29T03:22:29.772Z,92.86
2017-07-29T03:23:10.657Z,92.58
2017-07-29T03:23:51.552Z,93.44
2017-07-29T03:24:32.438Z,93.35
2017-07-29T03:25:13.331Z,93.15
2017-07-29T03:25:54.213Z,93.35
2017-07-29T03:26:35.169Z,93.35
2017-07-29T03:27:15.999Z,93.44
2017-07-29T03:27:56.876Z,93.44
2017-07-29T03:28:37.802Z,93.35
2017-07-29T03:29:18.668Z,93.44
2017-07-29T03:29:59.545Z,93.25
2017-07-29T03:30:40.442Z,93.92
2017-07-29T03:31:21.338Z,93.92
2017-07-29T03:32:02.222Z,93.92
2017-07-29T03:32:43.123Z,93.54
2017-07-29T03:33:24.019Z,93.63
2017-07-29T03:34:04.909Z,93.82
2017-07-29T03:34:45.832Z,93.82
2017-07-29T03:35:26.736Z,93.73
2017-07-29T03:36:07.637Z,93.54
2017-07-29T03:36:48.530Z,93.82
2017-07-29T03:37:29.409Z,93.63
2017-07-29T03:38:10.322Z,94.21
2017-07-29T03:38:51.184Z,93.44
2017-07-29T03:39:32.056Z,94.21
2017-07-29T03:41:10.465Z,93.82
2017-07-29T03:41:51.353Z,93.54
2017-07-29T03:42:32.245Z,93.63
2017-07-29T03:43:13.123Z,93.82
2017-07-29T03:43:53.995Z,93.82
2017-07-29T03:44:34.868Z,94.79
2017-07-29T03:45:15.750Z,94.02
2017-07-29T03:45:56.659Z,93.82
2017-07-29T03:46:37.576Z,94.21
2017-07-29T03:47:18.477Z,94.02
2017-07-29T03:47:59.354Z,93.54
2017-07-29T03:48:40.239Z,93.73
2017-07-29T03:50:09.366Z,93.54
2017-07-29T03:50:50.249Z,93.54
2017-07-29T03:51:31.119Z,93.73
2017-07-29T03:52:11.987Z,93.73
2017-07-29T03:52:52.871Z,93.54
2017-07-29T03:53:33.780Z,93.92
2017-07-29T03:54:14.656Z,93.82
2017-07-29T03:54:55.553Z,93.25
2017-07-29T03:55:36.460Z,93.63
2017-07-29T03:56:17.341Z,93.44
2017-07-29T03:56:58.210Z,93.15
2017-07-29T03:57:39.139Z,93.35
2017-07-29T03:58:19.988Z,93.25
2017-07-29T03:59:00.866Z,93.15
2017-07-29T03:59:41.755Z,93.44
2017-07-29T04:00:22.664Z,93.35
2017-07-29T04:01:03.522Z,93.44
2017-07-29T04:01:44.391Z,93.35
2017-07-29T04:02:25.257Z,93.35
2017-07-29T04:03:06.147Z,93.54
2017-07-29T04:03:47.061Z,93.25
2017-07-29T04:04:27.950Z,93.35
2017-07-29T04:05:08.788Z,93.25
2017-07-29T04:05:49.674Z,93.25
2017-07-29T04:06:30.569Z,93.39
2017-07-29T04:07:11.466Z,92.63
2017-07-29T04:07:52.353Z,92.53
2017-07-29T04:08:33.246Z,93.3
2017-07-29T04:09:14.127Z,92.48
2017-07-29T04:09:55.006Z,92.68
2017-07-29T04:10:35.890Z,93.35
2017-07-29T04:11:16.791Z,93.68
2017-07-29T04:11:57.690Z,92.53
2017-07-29T04:12:38.608Z,92.91
2017-07-29T04:13:19.499Z,92.29
2017-07-29T04:14:00.356Z,92.24
2017-07-29T04:14:41.267Z,92.68
2017-07-29T04:15:22.152Z,93.2
2017-07-29T04:16:03.024Z,93.54
2017-07-29T04:16:43.887Z,92.48
2017-07-29T04:17:24.767Z,92.77
2017-07-29T04:18:05.685Z,93.54
2017-07-29T04:18:46.561Z,93.15
2017-07-29T04:19:27.445Z,93.54
2017-07-29T04:20:08.341Z,92.68
2017-07-29T04:20:49.218Z,93.35
2017-07-29T04:21:30.126Z,93.25
2017-07-29T04:22:11.020Z,93.35
2017-07-29T04:22:51.902Z,93.54
2017-07-29T04:23:32.875Z,93.73
2017-07-29T04:24:13.754Z,93.63
2017-07-29T04:24:54.678Z,93.06
2017-07-29T04:25:35.536Z,92.96
2017-07-29T04:26:16.404Z,92.96
2017-07-29T04:26:57.296Z,92.96
2017-07-29T04:27:38.212Z,93.15
2017-07-29T04:28:19.083Z,93.25
2017-07-29T04:28:59.944Z,93.54
2017-07-29T04:29:40.823Z,93.35
2017-07-29T04:30:21.739Z,94.02
2017-07-29T04:31:02.604Z,93.35
2017-07-29T04:31:43.470Z,93.35
2017-07-29T04:32:24.351Z,93.44
2017-07-29T04:33:05.246Z,93.73
2017-07-29T04:33:46.140Z,93.44
2017-07-29T04:34:27.004Z,94.12
2017-07-29T04:35:07.863Z,93.54
2017-07-29T04:35:48.719Z,93.82
2017-07-29T04:36:29.635Z,94.12
2017-07-29T04:37:10.535Z,93.82
2017-07-29T04:37:51.422Z,93.63
2017-07-29T04:38:32.310Z,93.44
2017-07-29T04:39:13.199Z,93.35
2017-07-29T04:39:54.083Z,93.82
2017-07-29T04:40:34.993Z,93.25
2017-07-29T04:41:15.874Z,93.25
2017-07-29T04:41:56.752Z,94.02
2017-07-29T04:42:37.638Z,93.44
2017-07-29T04:43:18.541Z,93.25
2017-07-29T04:43:59.417Z,93.25
2017-07-29T04:44:40.300Z,92.96
2017-07-29T04:45:21.214Z,93.49
2017-07-29T04:46:02.097Z,93.49
2017-07-29T04:46:42.956Z,93.39
2017-07-29T04:47:23.842Z,93.01
2017-07-29T04:48:04.732Z,93.39
2017-07-29T04:48:45.621Z,93.39
2017-07-29T04:49:26.516Z,93.39
2017-07-29T04:50:07.410Z,93.39
2017-07-29T04:50:48.307Z,93.01
2017-07-29T04:51:29.198Z,93.39
2017-07-29T04:52:10.084Z,93.49
2017-07-29T04:52:50.974Z,93.49
2017-07-29T04:53:31.881Z,93.3
2017-07-29T04:54:12.759Z,92.91
2017-07-29T04:54:53.665Z,92.53
2017-07-29T04:55:34.548Z,92.53
2017-07-29T04:56:15.465Z,92.63
2017-07-29T04:56:56.357Z,92.63
2017-07-29T04:57:37.246Z,92.53
2017-07-29T04:58:18.150Z,92.72
2017-07-29T04:58:59.019Z,92.63
2017-07-29T04:59:39.907Z,93.2
2017-07-29T05:00:20.808Z,93.77
2017-07-29T05:01:01.692Z,93.39
2017-07-29T05:01:42.589Z,93.49
2017-07-29T05:02:23.486Z,93.49
2017-07-29T05:03:04.372Z,92.82
2017-07-29T05:03:45.277Z,92.38
2017-07-29T05:04:26.176Z,92.86
2017-07-29T05:05:07.060Z,92.38
2017-07-29T05:05:47.954Z,92.48
2017-07-29T05:06:28.846Z,92.19
2017-07-29T05:07:09.735Z,91.61
2017-07-29T05:07:50.623Z,91.71
2017-07-29T05:08:31.515Z,91.52
2017-07-29T05:09:12.404Z,91.23
2017-07-29T05:09:53.304Z,91.61
2017-07-29T05:10:34.191Z,91.23
2017-07-29T05:11:15.071Z,91.13
2017-07-29T05:11:55.948Z,91.13
2017-07-29T05:12:36.857Z,91.33
2017-07-29T05:13:17.733Z,90.84
2017-07-29T05:13:58.607Z,91.04
2017-07-29T05:14:39.513Z,91.33
2017-07-29T05:15:20.383Z,91.52
2017-07-29T05:16:01.305Z,91.33
2017-07-29T05:16:42.161Z,91.33
2017-07-29T05:17:23.049Z,91.13
2017-07-29T05:18:03.947Z,90.66
2017-07-29T05:18:44.832Z,91.42
2017-07-29T05:19:25.726Z,91.33
2017-07-29T05:20:06.610Z,91.04
2017-07-29T05:20:47.502Z,91.23
2017-07-29T05:21:28.384Z,91.23
2017-07-29T05:22:09.286Z,91.23
2017-07-29T05:22:50.174Z,91.42
2017-07-29T05:23:31.076Z,91.33
2017-07-29T05:24:11.971Z,91.42
2017-07-29T05:24:53.736Z,90.84
2017-07-29T05:25:34.627Z,91.04
2017-07-29T05:26:15.540Z,90.84
2017-07-29T05:26:56.395Z,91.33
2017-07-29T05:27:37.267Z,91.42
2017-07-29T05:28:18.176Z,91.13
2017-07-29T05:28:59.077Z,91.33
2017-07-29T05:29:39.965Z,91.52
2017-07-29T05:30:20.845Z,91.33
2017-07-29T05:31:01.749Z,91.04
2017-07-29T05:31:42.629Z,91.42
2017-07-29T05:32:23.520Z,91.42
2017-07-29T05:33:04.414Z,91.13
2017-07-29T05:33:45.314Z,91.13
2017-07-29T05:34:26.193Z,91.23
2017-07-29T05:35:07.091Z,91.52
2017-07-29T05:35:47.972Z,90.84
2017-07-29T05:36:28.862Z,90.75
2017-07-29T05:37:09.750Z,90.84
2017-07-29T05:37:50.633Z,90.66
2017-07-29T05:38:31.529Z,90.75
2017-07-29T05:39:12.418Z,91.04
2017-07-29T05:39:53.327Z,90.75
2017-07-29T05:40:34.203Z,91.33
2017-07-29T05:41:15.082Z,91.23
2017-07-29T05:41:55.973Z,91.42
2017-07-29T05:42:36.870Z,91.42
2017-07-29T05:43:17.775Z,91.33
2017-07-29T05:43:58.665Z,91.33
2017-07-29T05:44:39.561Z,90.94
2017-07-29T05:45:20.449Z,91.42
2017-07-29T05:46:01.341Z,91.42
2017-07-29T05:46:42.235Z,90.84
2017-07-29T05:47:23.127Z,90.75
2017-07-29T05:48:04.018Z,90.94
2017-07-29T05:48:44.910Z,90.7
2017-07-29T05:49:25.800Z,90.7
2017-07-29T05:50:06.687Z,90.51
2017-07-29T05:50:47.581Z,89.83
2017-07-29T05:52:41.401Z,89.74
2017-07-29T05:53:22.287Z,89.93
2017-07-29T05:54:03.172Z,90.03
2017-07-29T05:54:44.061Z,90.07
2017-07-29T05:55:24.959Z,89.26
2017-07-29T05:56:05.854Z,89.45
2017-07-29T05:56:46.750Z,89.07
2017-07-29T05:57:27.639Z,89.45
2017-07-29T05:58:08.530Z,89.83
2017-07-29T05:58:49.424Z,89.64
2017-07-29T05:59:30.324Z,89.45
2017-07-29T06:00:11.213Z,90.03
2017-07-29T06:00:52.108Z,90.22
2017-07-29T06:01:33.010Z,90.41
2017-07-29T06:02:13.886Z,90.12
2017-07-29T06:02:54.767Z,90.22
2017-07-29T06:03:35.663Z,90.41
2017-07-29T06:04:16.554Z,90.31
2017-07-29T06:04:57.458Z,90.31
2017-07-29T06:05:38.347Z,90.31
2017-07-29T06:06:19.215Z,89.74
2017-07-29T06:07:00.110Z,89.64
2017-07-29T06:07:41.020Z,89.64
2017-07-29T06:08:21.910Z,89.93
2017-07-29T06:09:02.805Z,89.64
2017-07-29T06:09:43.694Z,89.83
2017-07-29T06:10:24.588Z,90.31
2017-07-29T06:11:05.481Z,89.83
2017-07-29T06:11:46.371Z,90.31
2017-07-29T06:12:27.259Z,89.93
2017-07-29T06:13:08.145Z,90.41
2017-07-29T06:13:49.047Z,90.12
2017-07-29T06:14:29.934Z,90.12
2017-07-29T06:15:10.825Z,90.41
2017-07-29T06:15:51.719Z,90.22
2017-07-29T06:16:32.617Z,90.12
2017-07-29T06:17:13.502Z,90.31
2017-07-29T06:17:54.384Z,90.7
2017-07-29T06:18:35.276Z,90.31
2017-07-29T06:19:16.199Z,90.12
2017-07-29T06:19:57.095Z,90.31
2017-07-29T06:20:37.982Z,90.41
2017-07-29T06:21:18.876Z,90.31
2017-07-29T06:21:59.778Z,90.31
2017-07-29T06:22:40.704Z,90.41
2017-07-29T06:23:21.568Z,90.6
2017-07-29T06:24:02.454Z,90.22
2017-07-29T06:24:43.358Z,90.6
2017-07-29T06:25:24.248Z,90.31
2017-07-29T06:26:05.143Z,90.31
2017-07-29T06:26:46.031Z,89.93
2017-07-29T06:27:26.916Z,90.31
2017-07-29T06:28:07.854Z,90.41
2017-07-29T06:28:48.707Z,90.31
2017-07-29T06:29:29.678Z,90.41
2017-07-29T06:30:10.557Z,90.36
2017-07-29T06:30:51.458Z,90.31
2017-07-29T06:31:32.321Z,90.41
2017-07-29T06:32:13.216Z,90.41
2017-07-29T06:32:54.106Z,90.31
2017-07-29T06:33:34.998Z,90.22
2017-07-29T06:34:15.870Z,90.7
2017-07-29T06:34:56.748Z,90.99
2017-07-29T06:35:37.630Z,90.99
2017-07-29T06:36:18.530Z,90.51
2017-07-29T06:36:59.422Z,90.22
2017-07-29T06:37:40.302Z,90.22
2017-07-29T06:38:21.203Z,90.55
2017-07-29T06:39:02.089Z,90.36
2017-07-29T06:39:43.044Z,90.26
2017-07-29T06:40:23.964Z,90.17
2017-07-29T06:41:04.837Z,89.5
2017-07-29T06:41:45.724Z,89.35
2017-07-29T06:42:26.610Z,89.25
2017-07-29T06:43:07.487Z,88.96
2017-07-29T06:43:48.379Z,89.25
2017-07-29T06:44:29.266Z,88.96
2017-07-29T06:45:10.165Z,88.39
2017-07-29T06:45:51.128Z,88.77
2017-07-29T06:47:29.857Z,88.71
2017-07-29T06:48:10.718Z,88.71
2017-07-29T06:48:51.628Z,88.81
2017-07-29T06:49:32.544Z,88.24
2017-07-29T06:50:13.436Z,88.33
2017-07-29T06:50:54.335Z,88.71
2017-07-29T06:51:35.250Z,88.81
2017-07-29T06:52:16.142Z,88.04
2017-07-29T06:52:57.026Z,88.33
2017-07-29T06:53:37.918Z,88.14
2017-07-29T06:54:18.804Z,88.53
2017-07-29T06:54:59.696Z,88.77
2017-07-29T06:55:40.590Z,88.96
2017-07-29T06:56:21.484Z,88.91
2017-07-29T06:57:02.376Z,88.62
2017-07-29T06:57:43.271Z,88.62
2017-07-29T06:58:24.160Z,89.2
2017-07-29T06:59:05.047Z,88.71
2017-07-29T06:59:45.930Z,89.01
2017-07-29T07:00:26.812Z,88.62
2017-07-29T07:01:07.689Z,88.53
2017-07-29T07:01:48.575Z,88.53
2017-07-29T07:02:29.476Z,88.53
2017-07-29T07:03:10.374Z,88.24
2017-07-29T07:03:51.274Z,88.53
2017-07-29T07:04:32.178Z,88.53
2017-07-29T07:05:13.088Z,89.01
2017-07-29T07:05:53.996Z,88.81
2017-07-29T07:06:34.882Z,88.62
2017-07-29T07:07:15.782Z,88.43
2017-07-29T07:07:56.662Z,88.62
2017-07-29T07:08:37.547Z,88.71
2017-07-29T07:09:18.454Z,88.43
2017-07-29T07:09:59.344Z,88.62
2017-07-29T07:10:40.225Z,88.57
2017-07-29T07:11:21.130Z,89.2
2017-07-29T07:12:02.018Z,88.77
2017-07-29T07:12:42.917Z,88.87
2017-07-29T07:13:23.807Z,89.01
2017-07-29T07:14:04.698Z,89.06
2017-07-29T07:14:45.587Z,88.48
2017-07-29T07:15:26.485Z,89.15
2017-07-29T07:16:07.375Z,89.06
2017-07-29T07:16:48.264Z,90.02
2017-07-29T07:17:29.159Z,89.83
2017-07-29T07:18:10.042Z,90.31
2017-07-29T07:18:50.941Z,90.5
2017-07-29T07:19:31.834Z,90.21
2017-07-29T07:20:12.722Z,90.5
2017-07-29T07:20:53.602Z,89.83
2017-07-29T07:21:34.483Z,89.15
2017-07-29T07:22:15.356Z,89.25
2017-07-29T07:22:56.245Z,89.15
2017-07-29T07:23:37.130Z,89.1
2017-07-29T07:24:18.018Z,88.81
2017-07-29T07:24:58.911Z,89.1
2017-07-29T07:25:39.779Z,88.91
2017-07-29T07:26:20.665Z,88.71
2017-07-29T07:27:01.563Z,88.91
2017-07-29T07:27:42.450Z,88.43
2017-07-29T07:28:23.320Z,88.76
2017-07-29T07:30:22.139Z,88.09
2017-07-29T07:31:03.064Z,88.18
2017-07-29T07:31:43.942Z,87.51
2017-07-29T07:32:24.846Z,87.7
2017-07-29T07:33:05.732Z,87.8
2017-07-29T07:33:46.601Z,87.8
2017-07-29T07:34:27.477Z,87.32
2017-07-29T07:35:08.369Z,87.32
2017-07-29T07:35:49.257Z,87.6
2017-07-29T07:36:30.131Z,87.7
2017-07-29T07:37:11.022Z,87.6
2017-07-29T07:37:51.918Z,87.41
2017-07-29T07:38:32.799Z,87.8
2017-07-29T07:39:13.676Z,87.9
2017-07-29T07:39:54.580Z,87.99
2017-07-29T07:40:35.472Z,87.6
2017-07-29T07:41:16.347Z,87.7
2017-07-29T07:41:57.243Z,87.7
2017-07-29T07:42:38.138Z,87.9
2017-07-29T07:43:19.012Z,88.09
2017-07-29T07:43:59.890Z,88.33
2017-07-29T07:44:40.762Z,88.09
2017-07-29T07:45:21.637Z,88.18
2017-07-29T07:46:02.572Z,87.6
2017-07-29T07:46:43.421Z,87.8
2017-07-29T07:47:24.311Z,87.66
2017-07-29T07:48:05.205Z,88.04
2017-07-29T07:48:46.082Z,88.04
2017-07-29T07:49:26.960Z,87.56
2017-07-29T07:50:07.832Z,88.04
2017-07-29T07:50:48.713Z,88.53
2017-07-29T07:51:29.607Z,88.33
2017-07-29T07:52:10.475Z,88.53
2017-07-29T07:52:51.349Z,88.62
2017-07-29T07:53:32.229Z,88.24
2017-07-29T07:54:13.113Z,88.33
2017-07-29T07:54:53.990Z,88.33
2017-07-29T07:55:34.879Z,88.62
2017-07-29T07:56:15.756Z,88.53
2017-07-29T07:56:56.645Z,87.85
2017-07-29T07:57:37.537Z,87.95
2017-07-29T07:58:18.429Z,88.33
2017-07-29T07:58:59.311Z,88.62
2017-07-29T07:59:40.200Z,87.76
2017-07-29T08:00:21.068Z,87.76
2017-07-29T08:01:01.929Z,88.24
2017-07-29T08:01:42.801Z,88.14
2017-07-29T08:02:23.693Z,88.14
2017-07-29T08:03:04.554Z,87.95
2017-07-29T08:03:45.447Z,87.95
2017-07-29T08:04:26.316Z,88.28
2017-07-29T08:05:07.179Z,87.6
2017-07-29T08:05:48.049Z,87.8
2017-07-29T08:06:28.934Z,86.93
2017-07-29T08:07:09.829Z,86.83
2017-07-29T08:07:50.717Z,86.78
2017-07-29T08:08:31.625Z,86.55
2017-07-29T08:09:12.505Z,85.82
2017-07-29T08:09:53.385Z,85.82
2017-07-29T08:10:34.257Z,85.82
2017-07-29T08:11:15.145Z,86.01
2017-07-29T08:11:56.049Z,85.47
2017-07-29T08:12:36.920Z,85.24
2017-07-29T08:13:17.809Z,84.9
2017-07-29T08:13:58.685Z,84.32
2017-07-29T08:14:39.585Z,84.12
2017-07-29T08:15:20.462Z,84.52
2017-07-29T08:16:01.346Z,84.42
2017-07-29T08:16:42.221Z,84.03
2017-07-29T08:17:23.113Z,84.03
2017-07-29T08:18:03.990Z,84.42
2017-07-29T08:18:44.853Z,83.98
2017-07-29T08:19:25.737Z,83.94
2017-07-29T08:20:06.644Z,83.88
2017-07-29T08:20:47.527Z,83.59
2017-07-29T08:21:28.417Z,83.4
2017-07-29T08:22:09.303Z,83.78
2017-07-29T08:22:50.190Z,83.5
2017-07-29T08:23:31.058Z,83.11
2017-07-29T08:24:11.934Z,83.2
2017-07-29T08:24:52.826Z,82.86
2017-07-29T08:25:33.722Z,81.9
2017-07-29T08:26:14.590Z,81.7
2017-07-29T08:26:55.458Z,81.45
2017-07-29T08:27:36.326Z,80.97
2017-07-29T08:28:17.223Z,81.07
2017-07-29T08:28:58.108Z,81.16
2017-07-29T08:29:39.038Z,80.3
2017-07-29T08:30:19.930Z,80.1
2017-07-29T08:31:00.807Z,79.62
2017-07-29T08:31:41.700Z,79.43
2017-07-29T08:32:22.600Z,79.04
2017-07-29T08:33:03.477Z,79.24
2017-07-29T08:33:44.351Z,78.5
2017-07-29T08:34:25.262Z,78.56
2017-07-29T08:35:06.156Z,79.52
2017-07-29T08:35:47.042Z,79.08
2017-07-29T08:36:27.933Z,77.73
2017-07-29T08:37:08.828Z,77.34
2017-07-29T08:37:49.709Z,77.57
2017-07-29T08:38:30.642Z,77.38
2017-07-29T08:39:11.522Z,76.22
2017-07-29T08:39:52.403Z,76.16
2017-07-29T08:40:33.302Z,74.9
2017-07-29T08:41:14.236Z,73.59
2017-07-29T08:41:55.142Z,72.66
2017-07-29T08:42:36.021Z,71.5
2017-07-29T08:43:16.915Z,71.98
2017-07-29T08:43:57.812Z,70.78
2017-07-29T08:44:38.714Z,70.47
2017-07-29T08:45:19.625Z,69.05
2017-07-29T08:46:00.517Z,67.53
2017-07-29T08:46:41.452Z,66.69
2017-07-29T08:47:22.353Z,65.47
2017-07-29T08:48:03.265Z,63.95
2017-07-29T08:48:44.133Z,63.1
2017-07-29T08:49:25.034Z,61.45
2017-07-29T08:50:05.941Z,61.55
2017-07-29T08:50:46.851Z,61.29
2017-07-29T08:51:27.752Z,59.57
2017-07-29T08:52:08.681Z,58.21
2017-07-29T08:52:49.594Z,57.36